Time;durP1;ratioP1;P1;durP2;ratioP2;P2;SDS_P1;SDS_P2;PMS_P1;PMS_P2;Temp;Humidity;BMP_temperature;BMP_pressure;BME280_temperature;BME280_humidity;BME280_pressure;Samples;Min_cycle;Max_cycle;Signal;HPM_P1;HPM_P2
2022/09/23 00:01:13;;;;;;;;;;;18.60;56.20;;;;;;5076721;28;20279;-66
2022/09/23 00:03:40;;;;;;;;;;;18.60;56.20;;;;;;5094538;28;19920;-66
2022/09/23 00:06:07;;;;;;;;;;;18.60;56.20;;;;;;5093681;28;20311;-66
2022/09/23 00:08:32;;;;;;;;;;;18.60;56.20;;;;;;5094130;28;20337;-66
2022/09/23 00:11:06;;;;;;;;;;;18.50;56.10;;;;;;5094448;28;19920;-66
2022/09/23 00:13:32;;;;;;;;;;;18.50;56.10;;;;;;5094388;28;20310;-66
2022/09/23 00:16:01;;;;;;;;;;;18.60;56.20;;;;;;5076172;28;19923;-66
2022/09/23 00:18:27;;;;;;;;;;;18.50;56.10;;;;;;5076398;28;19920;-67
2022/09/23 00:20:52;;;;;;;;;;;18.50;56.10;;;;;;5076211;28;19973;-66
2022/09/23 00:23:17;;;;;;;;;;;18.50;56.20;;;;;;5075873;28;20291;-66
2022/09/23 00:25:43;;;;;;;;;;;18.50;56.20;;;;;;5075886;28;19927;-67
2022/09/23 00:28:09;;;;;;;;;;;18.50;56.20;;;;;;5075750;28;19979;-67
2022/09/23 00:30:34;;;;;;;;;;;18.50;56.10;;;;;;5074888;28;19920;-67
2022/09/23 00:33:00;;;;;;;;;;;18.50;56.10;;;;;;5076006;28;19920;-66
2022/09/23 00:35:25;;;;;;;;;;;18.50;56.20;;;;;;5075580;28;19972;-67
2022/09/23 00:37:51;;;;;;;;;;;18.50;56.20;;;;;;5059232;28;19920;-67
2022/09/23 00:40:16;;;;;;;;;;;18.50;56.20;;;;;;5093746;28;19920;-66
2022/09/23 00:42:50;;;;;;;;;;;18.40;56.10;;;;;;5075806;28;19924;-66
2022/09/23 00:45:16;;;;;;;;;;;18.50;56.20;;;;;;5075544;28;19927;-67
2022/09/23 00:47:44;;;;;;;;;;;18.50;56.20;;;;;;5093391;28;19924;-67
2022/09/23 00:53:06;;;;;;;;;;;18.40;56.10;;;;;;5110239;27;19912;-67
2022/09/23 00:55:33;;;;;;;;;;;18.40;56.10;;;;;;5108986;28;19920;-66
2022/09/23 00:58:01;;;;;;;;;;;18.40;56.10;;;;;;5108809;28;19927;-67
2022/09/23 01:00:26;;;;;;;;;;;18.40;56.10;;;;;;5109224;28;19920;-67
2022/09/23 01:02:52;;;;;;;;;;;18.40;56.10;;;;;;5108971;28;20408;-66
2022/09/23 01:05:17;;;;;;;;;;;18.40;56.10;;;;;;5108813;28;20287;-67
2022/09/23 01:07:43;;;;;;;;;;;18.40;56.20;;;;;;5108324;28;19930;-67
2022/09/23 01:10:10;;;;;;;;;;;18.40;56.20;;;;;;5108815;28;19920;-73
2022/09/23 01:15:22;;;;;;;;;;;18.40;56.10;;;;;;5089863;28;19912;-67
2022/09/23 01:17:52;;;;;;;;;;;18.40;56.10;;;;;;5088883;28;19927;-66
2022/09/23 01:20:27;;;;;;;;;;;18.40;56.20;;;;;;5088541;28;19960;-66
2022/09/23 01:23:07;;;;;;;;;;;18.40;56.10;;;;;;5089769;28;19926;-67
2022/09/23 01:25:53;;;;;;;;;;;18.40;56.20;;;;;;5088405;28;20411;-66
2022/09/23 01:33:57;;;;;;;;;;;18.30;56.10;;;;;;5089863;28;19913;-67
2022/09/23 01:36:26;;;;;;;;;;;18.30;56.10;;;;;;5088521;28;19920;-66
2022/09/23 01:38:57;;;;;;;;;;;18.30;56.10;;;;;;5088792;28;19920;-67
2022/09/23 01:44:06;;;;;;;;;;;18.30;56.10;;;;;;5089907;28;19919;-67
2022/09/23 01:46:41;;;;;;;;;;;18.30;56.10;;;;;;5088555;28;20003;-67
2022/09/23 01:49:26;;;;;;;;;;;18.30;56.10;;;;;;5088784;28;20043;-66
2022/09/23 01:51:55;;;;;;;;;;;18.30;56.20;;;;;;5089798;28;19936;-67
2022/09/23 01:59:49;;;;;;;;;;;18.20;56.10;;;;;;5110285;27;19918;-66
2022/09/23 02:05:00;;;;;;;;;;;18.30;56.20;;;;;;5172135;27;20350;-67
2022/09/23 02:07:30;;;;;;;;;;;18.20;56.10;;;;;;5153446;27;19919;-71
2022/09/23 02:10:00;;;;;;;;;;;18.20;56.10;;;;;;5153738;27;20018;-67
2022/09/23 02:12:29;;;;;;;;;;;18.20;56.10;;;;;;5153522;27;20430;-66
2022/09/23 02:14:57;;;;;;;;;;;18.20;56.10;;;;;;5153306;27;20475;-67
2022/09/23 02:17:25;;;;;;;;;;;18.20;56.10;;;;;;5153535;27;19926;-66
2022/09/23 02:19:55;;;;;;;;;;;18.20;56.10;;;;;;5153797;27;20019;-66
2022/09/23 02:22:40;;;;;;;;;;;18.20;56.10;;;;;;5171813;27;19962;-66
2022/09/23 02:25:07;;;;;;;;;;;18.20;56.10;;;;;;5153110;27;19926;-67
2022/09/23 02:27:38;;;;;;;;;;;18.20;56.10;;;;;;5171750;27;19919;-66
2022/09/23 02:30:20;;;;;;;;;;;18.10;56.10;;;;;;5171656;27;20456;-67
2022/09/23 02:32:59;;;;;;;;;;;18.20;56.10;;;;;;5171692;27;20290;-67
2022/09/23 02:35:31;;;;;;;;;;;18.10;56.10;;;;;;5171878;27;19919;-66
2022/09/23 02:38:08;;;;;;;;;;;18.10;56.10;;;;;;5171783;27;20275;-66
2022/09/23 02:40:37;;;;;;;;;;;18.20;56.10;;;;;;5152868;27;19919;-66
2022/09/23 02:45:44;;;;;;;;;;;19.30;54.70;;;;;;5089767;28;19913;-66
2022/09/23 02:48:14;;;;;;;;;;;20.00;53.20;;;;;;5088522;28;19926;-66
2022/09/23 02:50:40;;;;;;;;;;;20.70;51.70;;;;;;5088849;28;19920;-66
2022/09/23 02:53:06;;;;;;;;;;;21.40;50.30;;;;;;5088420;28;19978;-67
2022/09/23 02:55:32;;;;;;;;;;;21.90;49.00;;;;;;5088771;28;19920;-66
2022/09/23 02:58:00;;;;;;;;;;;22.40;48.10;;;;;;5088581;28;19927;-67
2022/09/23 03:00:34;;;;;;;;;;;22.80;47.50;;;;;;5088261;28;20019;-67
2022/09/23 03:03:06;;;;;;;;;;;23.10;46.90;;;;;;5088204;28;19920;-66
2022/09/23 03:05:36;;;;;;;;;;;23.40;46.40;;;;;;5087411;28;20006;-66
2022/09/23 03:08:11;;;;;;;;;;;23.60;45.90;;;;;;5088115;28;20006;-67
2022/09/23 03:10:46;;;;;;;;;;;23.80;45.50;;;;;;5089468;28;19920;-67
2022/09/23 03:13:29;;;;;;;;;;;24.00;45.10;;;;;;5088342;28;19954;-71
2022/09/23 03:16:03;;;;;;;;;;;24.10;44.90;;;;;;5088136;28;19921;-66
2022/09/23 03:18:34;;;;;;;;;;;24.10;44.80;;;;;;5089234;28;19928;-66
2022/09/23 03:21:02;;;;;;;;;;;24.30;44.70;;;;;;5088064;28;19920;-66
2022/09/23 03:23:31;;;;;;;;;;;24.50;44.40;;;;;;5087688;28;19921;-66
2022/09/23 03:25:58;;;;;;;;;;;24.60;44.20;;;;;;5088153;28;19963;-66
2022/09/23 03:28:25;;;;;;;;;;;24.60;44.10;;;;;;5087788;28;19995;-67
2022/09/23 03:30:51;;;;;;;;;;;24.70;43.70;;;;;;5087750;28;19927;-67
2022/09/23 03:33:18;;;;;;;;;;;24.70;43.70;;;;;;5087728;28;19920;-67
2022/09/23 03:38:40;;;;;;;;;;;24.90;43.60;;;;;;5088767;28;19975;-66
2022/09/23 03:41:08;;;;;;;;;;;25.00;43.30;;;;;;5088010;28;20585;-67
2022/09/23 03:43:34;;;;;;;;;;;25.10;43.30;;;;;;5089726;28;19936;-71
2022/09/23 03:46:00;;;;;;;;;;;25.10;43.20;;;;;;5090947;28;19928;-67
2022/09/23 03:48:26;;;;;;;;;;;25.10;43.10;;;;;;5109067;28;19924;-66
2022/09/23 03:50:51;;;;;;;;;;;25.20;43.10;;;;;;5108953;28;19963;-67
2022/09/23 03:53:19;;;;;;;;;;;25.10;42.90;;;;;;5109139;28;20391;-67
2022/09/23 03:55:45;;;;;;;;;;;25.20;42.90;;;;;;5084437;28;19920;-67
2022/09/23 03:58:11;;;;;;;;;;;25.10;42.80;;;;;;5095384;28;20011;-66
2022/09/23 04:00:37;;;;;;;;;;;25.10;42.70;;;;;;5095247;28;19998;-67
2022/09/23 04:03:03;;;;;;;;;;;25.10;42.90;;;;;;5095238;28;20299;-67
2022/09/23 04:05:29;;;;;;;;;;;25.10;42.80;;;;;;5095037;28;19920;-67
2022/09/23 04:07:55;;;;;;;;;;;25.00;42.80;;;;;;5095672;28;20019;-67
2022/09/23 04:10:21;;;;;;;;;;;25.00;42.80;;;;;;5095407;28;20310;-66
2022/09/23 04:12:47;;;;;;;;;;;24.90;42.90;;;;;;5076889;28;20371;-67
2022/09/23 04:15:12;;;;;;;;;;;24.90;42.90;;;;;;5077054;28;20007;-67
2022/09/23 04:17:38;;;;;;;;;;;24.80;42.90;;;;;;5076814;28;19923;-72
2022/09/23 04:20:04;;;;;;;;;;;24.80;43.10;;;;;;5076523;28;19920;-67
2022/09/23 04:22:31;;;;;;;;;;;24.90;43.00;;;;;;5094886;28;19939;-66
2022/09/23 04:24:59;;;;;;;;;;;24.90;42.80;;;;;;5094785;28;19927;-67
2022/09/23 04:27:25;;;;;;;;;;;24.90;42.80;;;;;;5094771;28;19928;-67
2022/09/23 04:29:50;;;;;;;;;;;24.90;42.80;;;;;;5076570;28;19926;-67
2022/09/23 04:32:16;;;;;;;;;;;24.90;42.80;;;;;;5093678;28;19969;-67
2022/09/23 04:34:42;;;;;;;;;;;25.00;42.60;;;;;;5076698;28;20392;-66
2022/09/23 04:37:07;;;;;;;;;;;25.00;42.50;;;;;;5094588;28;20007;-67
2022/09/23 04:39:33;;;;;;;;;;;25.10;42.50;;;;;;5094485;28;19927;-67
2022/09/23 04:41:58;;;;;;;;;;;25.00;42.40;;;;;;5094614;28;19921;-67
2022/09/23 04:44:26;;;;;;;;;;;25.10;42.40;;;;;;5076156;28;19924;-67
2022/09/23 04:46:52;;;;;;;;;;;25.10;42.50;;;;;;5076229;28;19920;-66
2022/09/23 04:49:18;;;;;;;;;;;25.00;42.30;;;;;;5076228;28;20102;-67
2022/09/23 04:51:44;;;;;;;;;;;25.10;42.40;;;;;;5076317;28;19920;-67
2022/09/23 04:54:11;;;;;;;;;;;25.10;42.40;;;;;;5076423;28;20257;-67
2022/09/23 04:56:36;;;;;;;;;;;25.10;42.40;;;;;;5076047;28;19927;-67
2022/09/23 04:59:02;;;;;;;;;;;25.10;42.30;;;;;;5076266;28;19920;-66
2022/09/23 05:01:29;;;;;;;;;;;25.10;42.30;;;;;;5094011;28;19927;-67
2022/09/23 05:03:56;;;;;;;;;;;25.00;42.20;;;;;;5075961;28;19928;-67
2022/09/23 05:06:22;;;;;;;;;;;25.10;42.20;;;;;;5093830;28;19959;-67
2022/09/23 05:08:49;;;;;;;;;;;25.00;42.00;;;;;;5075207;28;19920;-67
2022/09/23 05:11:16;;;;;;;;;;;25.00;42.10;;;;;;5075666;28;19920;-67
2022/09/23 05:13:42;;;;;;;;;;;25.00;42.10;;;;;;5059622;28;19968;-67
2022/09/23 05:16:09;;;;;;;;;;;25.00;42.10;;;;;;5093824;28;19967;-70
2022/09/23 05:18:35;;;;;;;;;;;24.90;42.50;;;;;;5075911;28;20287;-67
2022/09/23 05:21:01;;;;;;;;;;;24.90;42.40;;;;;;5092941;28;19932;-66
2022/09/23 05:23:28;;;;;;;;;;;24.90;42.40;;;;;;5093395;28;20363;-67
2022/09/23 05:25:55;;;;;;;;;;;24.80;42.30;;;;;;5075446;28;19924;-67
2022/09/23 05:28:21;;;;;;;;;;;24.80;42.40;;;;;;5091484;28;19920;-68
2022/09/23 05:30:46;;;;;;;;;;;24.70;42.40;;;;;;5073702;28;19927;-68
2022/09/23 05:33:12;;;;;;;;;;;24.40;41.70;;;;;;5090997;28;19981;-68
2022/09/23 05:35:37;;;;;;;;;;;24.10;41.60;;;;;;5091522;28;19924;-67
2022/09/23 05:38:03;;;;;;;;;;;23.80;42.10;;;;;;5074335;28;20360;-69
2022/09/23 05:40:28;;;;;;;;;;;23.60;42.20;;;;;;5092046;28;19920;-68
2022/09/23 05:42:55;;;;;;;;;;;23.50;42.30;;;;;;5092716;28;19927;-74
2022/09/23 05:45:20;;;;;;;;;;;23.40;42.30;;;;;;5075404;28;19924;-68
2022/09/23 05:47:46;;;;;;;;;;;23.50;42.90;;;;;;5074806;28;19920;-68
2022/09/23 05:50:11;;;;;;;;;;;23.60;42.30;;;;;;5092160;28;19931;-68
2022/09/23 05:52:37;;;;;;;;;;;23.80;42.10;;;;;;5092861;28;20284;-71
2022/09/23 05:55:02;;;;;;;;;;;23.80;41.80;;;;;;5075263;28;20379;-68
2022/09/23 05:57:29;;;;;;;;;;;23.70;41.30;;;;;;5073295;28;19920;-68
2022/09/23 05:59:54;;;;;;;;;;;23.80;41.40;;;;;;5091844;28;20760;-68
2022/09/23 06:02:20;;;;;;;;;;;23.90;41.00;;;;;;5073872;28;19920;-68
2022/09/23 06:04:45;;;;;;;;;;;24.00;40.90;;;;;;5066983;28;19936;-68
2022/09/23 06:07:11;;;;;;;;;;;24.20;41.00;;;;;;5071388;28;19920;-68
2022/09/23 06:09:36;;;;;;;;;;;24.40;40.80;;;;;;5069669;28;19973;-68
2022/09/23 06:12:02;;;;;;;;;;;24.60;40.70;;;;;;5067899;28;19943;-68
2022/09/23 06:14:28;;;;;;;;;;;24.70;40.80;;;;;;5066344;28;20442;-72
2022/09/23 06:16:53;;;;;;;;;;;24.80;40.60;;;;;;5048380;28;19931;-66
2022/09/23 06:19:19;;;;;;;;;;;25.00;40.30;;;;;;5037804;28;20304;-66
2022/09/23 06:21:44;;;;;;;;;;;25.20;39.90;;;;;;5069075;28;19973;-67
2022/09/23 06:24:10;;;;;;;;;;;25.30;39.90;;;;;;5053922;28;19950;-66
2022/09/23 06:26:37;;;;;;;;;;;25.30;39.80;;;;;;5072549;28;19928;-70
2022/09/23 06:29:03;;;;;;;;;;;25.30;39.80;;;;;;5054394;28;19924;-66
2022/09/23 06:31:29;;;;;;;;;;;25.20;40.00;;;;;;5066554;28;19975;-67
2022/09/23 06:33:54;;;;;;;;;;;25.10;40.10;;;;;;5068415;28;20375;-66
2022/09/23 06:36:20;;;;;;;;;;;25.00;40.20;;;;;;5061101;28;20235;-67
2022/09/23 06:38:48;;;;;;;;;;;25.00;40.60;;;;;;5065086;28;20442;-67
2022/09/23 06:41:13;;;;;;;;;;;24.80;40.90;;;;;;5043470;28;19973;-67
2022/09/23 06:43:39;;;;;;;;;;;24.60;41.00;;;;;;5072192;28;19939;-67
2022/09/23 06:46:06;;;;;;;;;;;24.40;41.30;;;;;;5069126;28;20466;-67
2022/09/23 06:48:34;;;;;;;;;;;24.30;41.60;;;;;;5069372;28;19932;-67
2022/09/23 06:51:02;;;;;;;;;;;24.10;41.80;;;;;;5053052;28;19928;-67
2022/09/23 06:53:31;;;;;;;;;;;23.90;42.20;;;;;;5056698;28;20577;-67
2022/09/23 06:55:59;;;;;;;;;;;23.70;42.50;;;;;;5071063;28;20013;-67
2022/09/23 06:58:25;;;;;;;;;;;23.60;42.70;;;;;;5070004;28;20271;-67
2022/09/23 07:00:51;;;;;;;;;;;23.50;43.00;;;;;;5060498;28;19966;-67
2022/09/23 07:03:17;;;;;;;;;;;23.40;43.20;;;;;;5054629;28;19928;-67
2022/09/23 07:05:42;;;;;;;;;;;23.40;43.30;;;;;;5054056;28;19925;-67
2022/09/23 07:08:08;;;;;;;;;;;23.30;43.30;;;;;;5069818;28;19947;-67
2022/09/23 07:10:35;;;;;;;;;;;23.30;43.30;;;;;;5054980;28;20950;-67
2022/09/23 07:13:01;;;;;;;;;;;23.40;43.50;;;;;;5060093;28;19920;-67
2022/09/23 07:15:26;;;;;;;;;;;23.40;43.30;;;;;;5072984;28;19927;-67
2022/09/23 07:17:52;;;;;;;;;;;23.40;43.30;;;;;;5074732;28;20972;-67
2022/09/23 07:20:17;;;;;;;;;;;23.50;43.30;;;;;;5054408;28;19974;-68
2022/09/23 07:22:47;;;;;;;;;;;23.60;43.10;;;;;;5052188;28;20021;-67
2022/09/23 07:25:13;;;;;;;;;;;23.70;43.00;;;;;;5057571;28;19944;-67
2022/09/23 07:27:38;;;;;;;;;;;23.80;42.80;;;;;;5069964;28;19951;-67
2022/09/23 07:30:05;;;;;;;;;;;23.90;42.70;;;;;;5070602;28;20020;-68
2022/09/23 07:32:30;;;;;;;;;;;24.00;42.60;;;;;;5077238;28;19967;-69
2022/09/23 07:34:56;;;;;;;;;;;24.20;42.50;;;;;;5052726;28;20020;-70
2022/09/23 07:37:21;;;;;;;;;;;24.20;42.40;;;;;;5069057;28;19935;-71
2022/09/23 07:39:47;;;;;;;;;;;24.30;42.30;;;;;;5071776;28;19924;-70
2022/09/23 07:42:13;;;;;;;;;;;24.40;42.20;;;;;;5075997;28;19924;-69
2022/09/23 07:44:38;;;;;;;;;;;24.40;42.00;;;;;;5061640;28;19928;-72
2022/09/23 07:47:04;;;;;;;;;;;24.30;42.40;;;;;;5075074;28;19928;-73
2022/09/23 07:49:30;;;;;;;;;;;24.10;42.70;;;;;;5054192;28;19981;-71
2022/09/23 07:51:56;;;;;;;;;;;24.00;43.10;;;;;;5056096;28;20007;-74
2022/09/23 07:54:24;;;;;;;;;;;23.80;43.30;;;;;;5061340;28;19924;-74
2022/09/23 07:56:49;;;;;;;;;;;23.60;43.60;;;;;;5054637;28;19924;-76
2022/09/23 07:59:17;;;;;;;;;;;23.40;44.00;;;;;;5059565;28;19931;-74
2022/09/23 08:01:45;;;;;;;;;;;23.20;44.40;;;;;;5073207;28;20019;-76
2022/09/23 08:04:13;;;;;;;;;;;23.10;44.70;;;;;;5073517;28;19929;-74
2022/09/23 08:06:40;;;;;;;;;;;22.90;45.10;;;;;;5052978;28;19928;-72
2022/09/23 08:09:05;;;;;;;;;;;22.80;45.40;;;;;;5051575;28;20363;-74
2022/09/23 08:11:31;;;;;;;;;;;22.60;45.60;;;;;;5068761;28;20027;-77
2022/09/23 08:13:57;;;;;;;;;;;22.50;46.00;;;;;;5063750;28;19920;-72
2022/09/23 08:16:22;;;;;;;;;;;22.40;46.20;;;;;;5065296;28;19928;-72
2022/09/23 08:18:48;;;;;;;;;;;22.20;46.50;;;;;;5053275;28;19956;-71
2022/09/23 08:21:18;;;;;;;;;;;22.10;46.70;;;;;;5057195;28;19961;-71
2022/09/23 08:23:43;;;;;;;;;;;22.00;47.00;;;;;;5043532;28;19947;-71
2022/09/23 08:26:09;;;;;;;;;;;21.90;47.10;;;;;;5056320;28;20570;-71
2022/09/23 08:28:34;;;;;;;;;;;21.90;47.40;;;;;;5052126;28;19932;-70
2022/09/23 08:31:00;;;;;;;;;;;21.80;47.50;;;;;;5069592;28;19924;-69
2022/09/23 08:33:25;;;;;;;;;;;21.80;47.70;;;;;;5072901;28;19932;-70
2022/09/23 08:35:51;;;;;;;;;;;21.70;47.80;;;;;;5075136;28;19928;-70
2022/09/23 08:38:17;;;;;;;;;;;21.60;48.00;;;;;;5052471;28;19931;-80
2022/09/23 08:40:46;;;;;;;;;;;21.60;48.30;;;;;;5074270;28;20909;-71
2022/09/23 08:43:28;;;;;;;;;;;21.60;48.50;;;;;;5054632;28;19931;-70
2022/09/23 08:45:54;;;;;;;;;;;21.50;48.50;;;;;;5063990;28;20455;-71
2022/09/23 08:48:26;;;;;;;;;;;21.40;48.70;;;;;;5067750;28;19925;-70
2022/09/23 08:50:57;;;;;;;;;;;21.40;48.80;;;;;;5072716;28;20303;-71
2022/09/23 08:53:25;;;;;;;;;;;21.30;48.90;;;;;;5072113;28;20028;-71
2022/09/23 08:55:52;;;;;;;;;;;21.30;49.10;;;;;;5062138;28;20039;-71
2022/09/23 08:58:38;;;;;;;;;;;21.30;49.30;;;;;;5057189;28;20058;-70
2022/09/23 09:01:11;;;;;;;;;;;21.30;49.30;;;;;;5063624;28;19932;-71
2022/09/23 09:06:36;;;;;;;;;;;21.20;49.70;;;;;;5061958;28;20367;-70
2022/09/23 09:09:03;;;;;;;;;;;21.20;49.80;;;;;;5058533;28;19921;-70
2022/09/23 09:11:34;;;;;;;;;;;21.20;50.10;;;;;;5042505;28;19925;-70
2022/09/23 09:14:21;;;;;;;;;;;21.20;50.10;;;;;;5045461;28;19931;-69
2022/09/23 09:19:37;;;;;;;;;;;21.20;50.50;;;;;;5104114;27;19924;-72
2022/09/23 09:22:04;;;;;;;;;;;21.20;50.60;;;;;;5096879;28;20008;-68
2022/09/23 09:24:33;;;;;;;;;;;21.10;50.80;;;;;;5085681;28;19928;-70
2022/09/23 09:27:00;;;;;;;;;;;21.10;50.90;;;;;;5097992;28;19935;-73
2022/09/23 09:29:28;;;;;;;;;;;21.20;51.40;;;;;;5099327;28;19966;-69
2022/09/23 09:31:53;;;;;;;;;;;21.20;51.40;;;;;;5095379;28;19981;-68
2022/09/23 09:37:04;;;;;;;;;;;21.20;51.60;;;;;;5066163;28;19924;-68
2022/09/23 09:39:30;;;;;;;;;;;21.20;52.00;;;;;;5084354;28;19960;-68
2022/09/23 09:41:58;;;;;;;;;;;21.20;52.10;;;;;;5065546;28;20082;-67
2022/09/23 09:47:27;;;;;;;;;;;21.30;51.90;;;;;;5083025;27;19920;-66
2022/09/23 09:50:00;;;;;;;;;;;21.30;52.00;;;;;;5104535;28;19929;-66
2022/09/23 09:52:28;;;;;;;;;;;21.30;51.90;;;;;;5067768;28;19931;-66
2022/09/23 09:54:58;;;;;;;;;;;21.30;52.10;;;;;;5069101;28;20460;-66
2022/09/23 10:03:01;;;;;;;;;;;21.30;52.20;;;;;;5092959;27;20302;-70
2022/09/23 10:08:35;;;;;;;;;;;21.30;52.20;;;;;;5111680;27;1864309;-68
2022/09/23 10:11:03;;;;;;;;;;;21.30;52.20;;;;;;5167386;27;20531;-68
2022/09/23 10:13:29;;;;;;;;;;;21.30;52.30;;;;;;5151380;27;20022;-74
2022/09/23 10:15:57;;;;;;;;;;;21.30;52.30;;;;;;5152797;27;20571;-68
2022/09/23 10:18:27;;;;;;;;;;;21.30;52.40;;;;;;5158841;27;19987;-67
2022/09/23 10:20:58;;;;;;;;;;;21.20;52.40;;;;;;5158646;27;19934;-68
2022/09/23 10:23:25;;;;;;;;;;;21.20;52.40;;;;;;5155917;27;20323;-68
2022/09/23 10:25:56;;;;;;;;;;;21.30;52.50;;;;;;5148695;27;19968;-68
2022/09/23 10:28:41;;;;;;;;;;;21.20;52.70;;;;;;5152319;27;19923;-68
2022/09/23 10:31:11;;;;;;;;;;;21.20;52.60;;;;;;5155023;27;20382;-68
2022/09/23 10:33:45;;;;;;;;;;;21.20;52.70;;;;;;5149934;27;19927;-68
2022/09/23 10:36:13;;;;;;;;;;;21.20;52.80;;;;;;5154897;27;19929;-68
2022/09/23 10:38:38;;;;;;;;;;;21.20;52.80;;;;;;5158387;27;19923;-68
2022/09/23 10:49:42;;;;;;;;;;;21.10;52.80;;;;;;5063660;28;19921;-66
2022/09/23 10:52:30;;;;;;;;;;;21.10;52.90;;;;;;5050578;28;19929;-68
2022/09/23 10:55:15;;;;;;;;;;;21.10;53.00;;;;;;5053137;28;20396;-69
2022/09/23 11:03:16;;;;;;;;;;;21.20;53.40;;;;;;5078360;27;19917;-74
2022/09/23 11:05:48;;;;;;;;;;;21.10;53.30;;;;;;5090214;28;20012;-76
2022/09/23 11:08:26;;;;;;;;;;;21.10;53.40;;;;;;5086824;28;20284;-76
2022/09/23 11:10:59;;;;;;;;;;;21.20;53.70;;;;;;5064854;28;19936;-73
2022/09/23 11:13:34;;;;;;;;;;;21.10;53.60;;;;;;5094072;28;19925;-73
2022/09/23 11:16:20;;;;;;;;;;;21.10;53.70;;;;;;5087555;28;20090;-75
2022/09/23 11:18:51;;;;;;;;;;;21.10;53.80;;;;;;5055274;28;19924;-73
2022/09/23 11:21:36;;;;;;;;;;;21.20;54.00;;;;;;5050769;28;19974;-70
2022/09/23 11:38:03;;;;;;;;;;;21.20;54.30;;;;;;5085238;27;19924;-68
2022/09/23 11:40:32;;;;;;;;;;;21.30;54.20;;;;;;5089481;28;20379;-67
2022/09/23 11:43:01;;;;;;;;;;;21.30;54.20;;;;;;5091130;28;20444;-69
2022/09/23 11:45:31;;;;;;;;;;;21.20;54.10;;;;;;5087165;28;20368;-68
2022/09/23 11:47:59;;;;;;;;;;;21.30;54.20;;;;;;5093115;28;20332;-67
2022/09/23 11:50:31;;;;;;;;;;;21.30;54.30;;;;;;5086521;28;20330;-67
2022/09/23 11:53:01;;;;;;;;;;;21.30;54.20;;;;;;5089244;28;20360;-68
2022/09/23 11:55:30;;;;;;;;;;;21.30;54.60;;;;;;5086586;28;19923;-68
2022/09/23 11:58:00;;;;;;;;;;;21.30;54.70;;;;;;5085849;28;19932;-69
2022/09/23 12:00:33;;;;;;;;;;;21.30;54.70;;;;;;5086507;28;20011;-67
2022/09/23 12:05:43;;;;;;;;;;;21.30;55.00;;;;;;5089880;27;19935;-69
2022/09/23 12:08:28;;;;;;;;;;;21.30;54.90;;;;;;5069179;28;20364;-69
2022/09/23 12:16:52;;;;;;;;;;;21.40;54.80;;;;;;5079910;27;20273;-69
2022/09/23 12:19:26;;;;;;;;;;;21.30;54.70;;;;;;5097641;28;19956;-71
2022/09/23 12:21:59;;;;;;;;;;;21.30;55.10;;;;;;5084965;28;19924;-71
2022/09/23 12:24:42;;;;;;;;;;;21.30;55.30;;;;;;5069278;28;19920;-74
2022/09/23 12:27:10;;;;;;;;;;;21.30;55.40;;;;;;5086324;28;19986;-72
2022/09/23 12:29:37;;;;;;;;;;;21.30;55.50;;;;;;5065028;28;19921;-71
2022/09/23 12:32:08;;;;;;;;;;;21.30;55.30;;;;;;5098709;28;19924;-70
2022/09/23 12:34:47;;;;;;;;;;;21.30;55.40;;;;;;5057589;28;19989;-70
2022/09/23 12:37:21;;;;;;;;;;;21.30;55.50;;;;;;5065817;28;20038;-66
2022/09/23 12:39:47;;;;;;;;;;;21.30;55.30;;;;;;5067793;28;19933;-67
2022/09/23 12:42:21;;;;;;;;;;;21.40;55.50;;;;;;5068632;28;19934;-67
2022/09/23 12:44:47;;;;;;;;;;;21.30;55.40;;;;;;5069452;28;19924;-67
2022/09/23 12:49:53;;;;;;;;;;;21.40;55.50;;;;;;5049620;28;19917;-70
2022/09/23 12:55:20;;;;;;;;;;;21.30;55.80;;;;;;5087435;27;19920;-67
2022/09/23 12:57:47;;;;;;;;;;;21.30;55.80;;;;;;5102883;27;20475;-67
2022/09/23 13:00:21;;;;;;;;;;;21.40;56.00;;;;;;5102261;28;19920;-69
2022/09/23 13:08:17;;;;;;;;;;;21.40;55.90;;;;;;5066595;28;20602;-67
2022/09/23 13:13:27;;;;;;;;;;;21.40;56.00;;;;;;5078416;27;20577;-67
2022/09/23 13:15:53;;;;;;;;;;;21.40;56.00;;;;;;5085389;28;19928;-67
2022/09/23 13:21:05;;;;;;;;;;;21.40;55.90;;;;;;5095838;27;19916;-67
2022/09/23 13:23:31;;;;;;;;;;;21.40;55.80;;;;;;5095664;28;19936;-67
2022/09/23 13:25:59;;;;;;;;;;;21.30;55.70;;;;;;5091274;28;19920;-65
2022/09/23 13:28:33;;;;;;;;;;;21.30;55.60;;;;;;5107224;28;19920;-67
2022/09/23 13:31:04;;;;;;;;;;;21.30;55.50;;;;;;5095064;28;19920;-67
2022/09/23 13:33:36;;;;;;;;;;;21.30;55.40;;;;;;5092233;28;19920;-67
2022/09/23 13:36:03;;;;;;;;;;;21.30;55.30;;;;;;5092315;28;20402;-67
2022/09/23 13:38:31;;;;;;;;;;;21.30;55.30;;;;;;5085632;28;19920;-71
2022/09/23 13:40:58;;;;;;;;;;;21.30;55.30;;;;;;5086316;28;19924;-71
2022/09/23 13:43:27;;;;;;;;;;;21.30;55.50;;;;;;5088694;28;19967;-74
2022/09/23 13:45:52;;;;;;;;;;;21.30;55.50;;;;;;5076519;28;20019;-74
2022/09/23 13:48:19;;;;;;;;;;;21.30;55.50;;;;;;5089328;28;20008;-74
2022/09/23 13:50:47;;;;;;;;;;;21.30;55.40;;;;;;5092392;28;19936;-73
2022/09/23 13:53:19;;;;;;;;;;;21.30;55.40;;;;;;5094087;28;20018;-73
2022/09/23 13:55:45;;;;;;;;;;;21.30;55.60;;;;;;5089143;28;19951;-73
2022/09/23 13:58:18;;;;;;;;;;;21.20;55.50;;;;;;5086457;28;19923;-70
2022/09/23 14:00:44;;;;;;;;;;;21.20;55.70;;;;;;5091702;28;20399;-70
2022/09/23 14:03:22;;;;;;;;;;;21.20;55.90;;;;;;5088539;28;19927;-69
2022/09/23 14:05:48;;;;;;;;;;;21.30;56.00;;;;;;5083456;28;20258;-73
2022/09/23 14:08:13;;;;;;;;;;;21.30;56.10;;;;;;5088164;28;20033;-69
2022/09/23 14:10:44;;;;;;;;;;;21.30;56.00;;;;;;5111138;27;19958;-71
2022/09/23 14:13:15;;;;;;;;;;;21.30;56.20;;;;;;5089426;28;19924;-71
2022/09/23 14:15:41;;;;;;;;;;;21.30;56.20;;;;;;5119097;27;19946;-72
2022/09/23 14:18:07;;;;;;;;;;;21.30;56.10;;;;;;5094106;28;19920;-70
2022/09/23 14:20:44;;;;;;;;;;;21.30;56.00;;;;;;5121407;27;20007;-70
2022/09/23 14:23:10;;;;;;;;;;;21.30;56.40;;;;;;5096835;28;20268;-66
2022/09/23 14:25:37;;;;;;;;;;;21.30;56.50;;;;;;5092711;28;20010;-68
2022/09/23 14:28:03;;;;;;;;;;;21.30;56.30;;;;;;5091007;28;19928;-68
2022/09/23 14:30:29;;;;;;;;;;;21.30;56.40;;;;;;5097121;28;19928;-68
2022/09/23 14:32:55;;;;;;;;;;;21.30;56.50;;;;;;5077338;28;20406;-70
2022/09/23 14:35:24;;;;;;;;;;;21.30;56.40;;;;;;5078226;28;19920;-68
2022/09/23 14:41:14;;;;;;;;;;;21.30;56.40;;;;;;5074123;28;20012;-69
2022/09/23 14:43:45;;;;;;;;;;;21.30;56.20;;;;;;5085224;28;19920;-70
2022/09/23 14:46:14;;;;;;;;;;;21.20;56.10;;;;;;5085457;28;19920;-70
2022/09/23 14:48:40;;;;;;;;;;;21.20;56.10;;;;;;5086494;28;19920;-71
2022/09/23 14:51:06;;;;;;;;;;;21.20;56.10;;;;;;5088741;28;20400;-70
2022/09/23 14:53:35;;;;;;;;;;;21.20;56.10;;;;;;5089005;28;19952;-70
2022/09/23 14:58:58;;;;;;;;;;;21.10;56.10;;;;;;5083197;28;19912;-68
2022/09/23 15:09:35;;;;;;;;;;;21.00;56.10;;;;;;5122325;27;1865186;-68
2022/09/23 15:12:04;;;;;;;;;;;21.00;56.20;;;;;;5169041;27;20229;-68
2022/09/23 15:14:33;;;;;;;;;;;21.00;56.20;;;;;;5171509;27;19966;-68
2022/09/23 15:17:00;;;;;;;;;;;21.00;56.20;;;;;;5172830;27;19925;-68
2022/09/23 15:19:27;;;;;;;;;;;20.90;56.20;;;;;;5172079;27;20293;-68
2022/09/23 15:21:56;;;;;;;;;;;21.00;56.30;;;;;;5172622;27;19943;-68
2022/09/23 15:24:38;;;;;;;;;;;20.90;56.20;;;;;;5172961;27;19984;-68
2022/09/23 15:27:24;;;;;;;;;;;20.90;56.30;;;;;;5171316;27;19923;-68
2022/09/23 15:29:49;;;;;;;;;;;20.90;56.30;;;;;;5171182;27;20029;-69
2022/09/23 15:32:15;;;;;;;;;;;20.90;56.30;;;;;;5172019;27;20413;-68
2022/09/23 15:34:40;;;;;;;;;;;20.90;56.30;;;;;;5172524;27;19976;-68
2022/09/23 15:37:09;;;;;;;;;;;20.90;56.30;;;;;;5191480;27;20293;-68
2022/09/23 15:39:36;;;;;;;;;;;20.90;56.30;;;;;;5189924;27;19923;-68
2022/09/23 15:42:01;;;;;;;;;;;20.90;56.30;;;;;;5172419;27;19923;-68
2022/09/23 15:44:28;;;;;;;;;;;20.90;56.70;;;;;;5191545;27;20530;-69
2022/09/23 15:46:55;;;;;;;;;;;20.80;56.20;;;;;;5189850;27;19918;-68
2022/09/23 15:49:26;;;;;;;;;;;20.80;56.30;;;;;;5170442;27;20033;-68
2022/09/23 15:51:52;;;;;;;;;;;20.80;56.30;;;;;;5190035;27;19926;-68
2022/09/23 15:54:18;;;;;;;;;;;20.80;56.30;;;;;;5190293;27;19922;-68
2022/09/23 15:56:44;;;;;;;;;;;20.80;56.30;;;;;;5171734;27;19919;-69
2022/09/23 15:59:10;;;;;;;;;;;20.80;56.40;;;;;;5170105;27;19918;-68
2022/09/23 16:01:36;;;;;;;;;;;20.80;56.30;;;;;;5171249;27;19919;-69
2022/09/23 16:04:03;;;;;;;;;;;20.80;56.40;;;;;;5178589;27;20010;-68
2022/09/23 16:06:29;;;;;;;;;;;20.80;56.40;;;;;;5167891;27;20327;-68
2022/09/23 16:08:54;;;;;;;;;;;20.70;56.30;;;;;;5148686;27;19968;-68
2022/09/23 16:11:23;;;;;;;;;;;20.70;56.30;;;;;;5168611;27;20106;-68
2022/09/23 16:13:49;;;;;;;;;;;20.70;56.40;;;;;;5149564;27;20196;-68
2022/09/23 16:16:15;;;;;;;;;;;20.70;56.40;;;;;;5151150;27;19919;-68
2022/09/23 16:18:42;;;;;;;;;;;20.70;56.40;;;;;;5149680;27;20263;-68